createdAt,value
2019-05-23T00:04:05.669Z,0.003
2019-05-23T00:09:23.591Z,-0.018
2019-05-23T00:14:42.845Z,-0.003
2019-05-23T00:19:57.895Z,-0.009
2019-05-23T00:20:34.627Z,0.002
2019-05-23T00:25:47.034Z,-0.008
2019-05-23T00:31:03.198Z,-0.013
2019-05-23T00:36:15.688Z,-0.002
2019-05-23T00:41:29.144Z,-0.008
2019-05-23T00:46:47.247Z,0.031
2019-05-23T00:52:03.115Z,0.001
2019-05-23T00:57:18.851Z,0.024
2019-05-23T01:02:35.724Z,0.005
2019-05-23T01:07:50.987Z,-0.001
2019-05-23T01:13:06.943Z,0.002
2019-05-23T01:18:21.627Z,0
2019-05-23T01:23:37.650Z,-0.001
2019-05-23T01:28:50.850Z,-0.001
2019-05-23T01:34:07.459Z,0
2019-05-23T01:39:22.367Z,0.002
2019-05-23T01:44:38.299Z,-0.003
2019-05-23T01:49:52.692Z,-0.012
2019-05-23T02:00:21.842Z,-0.025
2019-05-23T02:10:49.734Z,-0.027
2019-05-23T02:16:05.975Z,0.026
2019-05-23T02:21:22.126Z,-0.013
2019-05-23T02:26:36.363Z,-0.018
2019-05-23T02:31:50.322Z,-0.01
2019-05-23T02:42:19.767Z,-0.022
2019-05-23T02:47:34.603Z,0.003
2019-05-23T02:52:50.184Z,0.019
2019-05-23T02:58:04.891Z,0.003
2019-05-23T03:03:19.938Z,-0.02
2019-05-23T03:08:36.329Z,-0.016
2019-05-23T03:13:54.414Z,-0.007
2019-05-23T03:14:30.317Z,0.006
2019-05-23T03:19:43.172Z,0.023
2019-05-23T03:24:56.172Z,0.008
2019-05-23T03:30:12.867Z,-0.001
2019-05-23T03:35:24.692Z,-0.003
2019-05-23T03:40:40.854Z,-0.002
2019-05-23T03:45:54.630Z,0.001
2019-05-23T03:51:10.852Z,0.001
2019-05-23T03:56:24.517Z,0.003
2019-05-23T04:01:47.483Z,0.005
2019-05-23T04:07:02.764Z,0.01
2019-05-23T04:12:18.543Z,0.009
2019-05-23T04:17:33.425Z,0.01
2019-05-23T04:22:48.537Z,0.011
2019-05-23T04:28:03.855Z,0.016
2019-05-23T04:33:16.421Z,0.012
2019-05-23T04:38:36.030Z,0.013
2019-05-23T04:43:51.674Z,0.016
2019-05-23T04:49:07.875Z,0.016
2019-05-23T04:54:21.736Z,0.017
2019-05-23T04:59:37.386Z,0.028
2019-05-23T05:04:56.589Z,0.258
2019-05-23T05:10:14.341Z,0.239
2019-05-23T05:15:33.739Z,0.189
2019-05-23T05:20:49.974Z,0.15
2019-05-23T05:26:06.715Z,0.009
2019-05-23T05:31:22.762Z,0.022
2019-05-23T05:36:38.827Z,-0.017
2019-05-23T06:39:46.261Z,-0.029
2019-05-23T06:45:06.712Z,-0.022
2019-05-23T06:50:25.638Z,-0.014
2019-05-23T07:01:02.663Z,-0.023
2019-05-23T07:06:17.686Z,-0.026
2019-05-23T07:11:34.020Z,-0.026
2019-05-23T07:16:50.753Z,-0.015
2019-05-23T07:27:20.452Z,0
2019-05-23T07:32:36.375Z,0.02
2019-05-23T07:37:52.813Z,-0.005
2019-05-23T07:43:08.062Z,-0.002
2019-05-23T07:48:23.546Z,-0.01
2019-05-23T07:53:36.204Z,-0.029
2019-05-23T07:54:13.608Z,-0.027
2019-05-23T07:59:29.940Z,-0.016
2019-05-23T08:04:46.703Z,-0.029
2019-05-23T08:20:31.060Z,-0.001
2019-05-23T08:25:49.120Z,0.019
2019-05-23T08:31:04.646Z,-0.019
2019-05-23T08:46:47.853Z,-0.025
2019-05-23T08:52:03.437Z,-0.018
2019-05-23T08:57:16.821Z,0.001
2019-05-23T09:02:34.339Z,0.008
2019-05-23T09:07:50.574Z,-0.011
2019-05-23T09:18:22.961Z,-0.021
2019-05-23T09:39:18.357Z,-0.003
2019-05-23T09:44:34.304Z,-0.018
2019-05-23T09:49:53.418Z,-0.019
2019-05-23T09:55:10.655Z,0.008
2019-05-23T10:00:27.365Z,0.029
2019-05-23T10:05:44.116Z,0.009
2019-05-23T10:10:59.168Z,-0.018
2019-05-23T10:37:08.938Z,-0.011
2019-05-23T10:42:26.458Z,-0.006
2019-05-23T10:52:54.556Z,-0.026
2019-05-23T11:08:39.220Z,-0.001
2019-05-23T11:13:55.246Z,-0.022
2019-05-23T11:29:37.918Z,-0.023
2019-05-23T11:34:56.528Z,-0.008
2019-05-23T11:51:07.220Z,-0.026
2019-05-23T12:01:37.342Z,0.005
2019-05-23T12:06:56.497Z,0.01
2019-05-23T12:22:43.023Z,-0.01
2019-05-23T12:28:00.121Z,-0.012
2019-05-23T12:33:15.539Z,0.004
2019-05-23T12:38:31.334Z,0.027
2019-05-23T12:59:29.806Z,0.053
2019-05-23T13:04:46.847Z,0.085
2019-05-23T13:20:30.554Z,0.019
2019-05-23T13:36:14.377Z,0.034
2019-05-23T14:02:26.537Z,-0.018
2019-05-23T14:54:48.724Z,-0.028
2019-05-23T15:05:20.139Z,-0.024
2019-05-23T15:21:02.568Z,-0.022
2019-05-23T16:13:26.461Z,-0.026
2019-05-23T17:31:57.431Z,-0.019
2019-05-23T17:37:13.508Z,-0.028
2019-05-23T17:47:45.380Z,-0.012
2019-05-23T17:53:00.853Z,-0.01
2019-05-23T17:58:16.720Z,-0.009
2019-05-23T18:03:32.356Z,-0.022
2019-05-23T18:08:48.666Z,-0.021
2019-05-23T18:14:04.713Z,-0.012
2019-05-23T18:19:21.356Z,-0.014
2019-05-23T18:24:36.952Z,-0.017
2019-05-23T18:29:50.955Z,0.001
2019-05-23T18:35:07.035Z,0.023
2019-05-23T18:40:20.515Z,-0.02
2019-05-23T18:45:36.518Z,0.009
2019-05-23T18:50:51.334Z,0.025
2019-05-23T19:02:18.987Z,0.008
2019-05-23T19:07:35.762Z,0
2019-05-23T19:12:50.602Z,0
2019-05-23T19:18:05.452Z,0.001
2019-05-23T19:23:20.552Z,-0.002
2019-05-23T19:28:36.026Z,-0.015
2019-05-23T19:33:49.978Z,-0.008
2019-05-23T19:39:05.702Z,-0.007
2019-05-23T19:44:20.494Z,0.003
2019-05-23T19:49:36.370Z,0.037
2019-05-23T19:54:51.590Z,0.016
2019-05-23T20:00:06.618Z,0.009
2019-05-23T20:05:22.542Z,-0.028
2019-05-23T20:10:37.005Z,-0.012
2019-05-23T20:15:52.721Z,0.001
2019-05-23T20:21:09.221Z,0.033
2019-05-23T20:26:23.785Z,0.015
2019-05-23T20:31:40.749Z,0.005
2019-05-23T20:36:55.683Z,0.003
2019-05-23T20:42:12.080Z,0.006
2019-05-23T20:47:27.339Z,0.005
2019-05-23T20:52:41.532Z,0.005
2019-05-23T20:57:57.389Z,-0.001
2019-05-23T21:03:12.006Z,0
2019-05-23T21:08:28.466Z,0.011
2019-05-23T21:13:43.067Z,0.011
2019-05-23T21:19:00.195Z,0.014
2019-05-23T21:24:16.881Z,0.02
2019-05-23T21:29:31.821Z,0.026
2019-05-23T21:34:46.576Z,0.023
2019-05-23T21:40:01.353Z,0.017
2019-05-23T21:45:17.110Z,0.008
2019-05-23T21:50:31.905Z,0.005
2019-05-23T21:55:46.827Z,0.005
2019-05-23T22:01:01.328Z,0.005
2019-05-23T22:06:16.319Z,0.002
2019-05-23T22:11:31.346Z,0.003
2019-05-23T22:16:46.489Z,-0.001
2019-05-23T22:22:01.263Z,0.001
2019-05-23T22:27:16.736Z,-0.021
2019-05-23T22:32:32.183Z,0.019
2019-05-23T22:37:47.305Z,-0.018
2019-05-23T22:43:02.284Z,0.033
2019-05-23T22:48:16.200Z,-0.008
2019-05-23T22:53:32.721Z,-0.013
2019-05-23T22:58:47.432Z,-0.013
2019-05-23T23:04:03.647Z,-0.021
2019-05-23T23:09:19.856Z,-0.017
2019-05-23T23:14:36.107Z,-0.008
2019-05-23T23:19:52.357Z,-0.019
2019-05-23T23:25:04.970Z,0.004
2019-05-23T23:30:22.634Z,0.021
2019-05-23T23:35:36.066Z,0.007
2019-05-23T23:40:51.632Z,0
2019-05-23T23:46:06.809Z,-0.002
2019-05-23T23:51:21.965Z,-0.005
2019-05-23T23:56:37.471Z,-0.01
